Latest Weather Observations for Oodnadatta

IDS60801

Issued at 10:31 pm CST Monday 25 May 2015 (issued every 30 minutes, with the page automatically refreshed every 10 minutes)

About weather observations | Map of weather stations | Latest weather observations for SA | Other Formats
Station Details ID: 017043 Name: OODNADATTA AIRPORT Lat: -27.56 Lon: 135.45 Height: 116.5 m
Data from the previous 72 hours. | See also: Recent months at Oodnadatta
Date/Time
CST
Temp
°C
App
Temp
°C
Dew
Point
Rel
Hum
%
Delta-T
°C
Wind Press
QNH
hPa
Press
MSL
hPa
Rain
since 9 am
mm
Dir
 
Spd
km/h
Gust
km/h
Spd
kts
Gust
kts
25/10:30pm 17.5 15.2 5.8 46 5.7 E 7 9 4 5 1024.6 - 0.0
25/10:00pm 17.2 15.0 5.5 46 5.7 E 6 7 3 4 1024.9 - 0.0
25/09:30pm 17.7 15.1 5.9 46 5.8 E 9 11 5 6 1024.7 - 0.0
25/09:00pm 17.5 14.8 5.4 45 5.8 NNE 9 11 5 6 1024.6 1024.4 0.0
25/08:30pm 17.9 15.2 5.8 45 5.9 NNE 9 11 5 6 1024.5 - 0.0
25/08:00pm 17.7 14.9 5.3 44 6.0 NNE 9 11 5 6 1024.5 - 0.0
25/07:30pm 18.4 15.7 5.6 43 6.2 NNE 9 11 5 6 1024.4 - 0.0
25/07:00pm 19.0 16.9 5.8 42 6.5 NNE 6 9 3 5 1024.3 - 0.0
25/06:30pm 20.1 19.3 6.4 41 6.9 CALM 0 0 0 0 1024.3 - 0.0
25/06:00pm 20.5 19.7 6.4 40 7.1 CALM 0 0 0 0 1024.2 1024.0 0.0
25/05:30pm 20.9 20.1 6.4 39 7.4 CALM 0 0 0 0 1023.4 - 0.0
25/05:00pm 21.4 20.6 6.5 38 7.6 CALM 0 0 0 0 1023.6 - 0.0
25/04:30pm 21.5 20.3 6.6 38 7.6 NNE 2 7 1 4 1023.1 - 0.0
25/04:00pm 21.5 20.0 6.6 38 7.6 N 4 9 2 5 1023.0 - 0.0
25/03:30pm 21.4 19.5 6.5 38 7.6 NW 6 9 3 5 1022.9 - 0.0
25/03:00pm 21.4 18.9 6.5 38 7.6 NNW 9 11 5 6 1023.1 1022.9 0.0
25/02:30pm 21.1 18.6 6.6 39 7.4 N 9 11 5 6 1023.0 - 0.0
25/02:00pm 21.3 18.8 6.4 38 7.6 N 9 17 5 9 1023.0 - 0.0
25/01:30pm 21.4 18.5 6.5 38 7.6 NNE 11 15 6 8 1022.9 - 0.0
25/01:00pm 21.2 17.9 6.3 38 7.6 NE 13 17 7 9 1023.6 - 0.0
25/12:30pm 21.2 18.3 6.3 38 7.6 ENE 11 15 6 8 1023.8 - 0.0
25/12:00pm 20.7 17.8 6.3 39 7.2 E 11 17 6 9 1024.3 1024.1 0.0
25/11:30am 20.2 18.2 6.2 40 7.0 SE 6 9 3 5 1024.9 - 0.0
25/11:00am 19.2 17.2 6.3 43 6.5 ENE 6 9 3 5 1025.3 - 0.0
25/10:30am 18.2 16.0 6.1 45 6.0 SSE 7 9 4 5 1025.6 - 0.0
25/10:00am 17.4 15.3 5.7 46 5.7 SSE 6 9 3 5 1025.9 - 0.0
25/09:30am 16.5 14.4 5.8 49 5.2 SSE 6 9 3 5 1026.1 - 0.0
25/09:00am 15.3 12.5 5.2 51 4.8 SSE 9 11 5 6 1026.0 1025.9 0.0
25/08:30am 14.6 12.1 4.6 51 4.7 E 7 9 4 5 1025.6 - 0.0
25/08:00am 14.5 11.3 5.3 54 4.4 E 11 15 6 8 1025.2 - 0.0
25/07:30am 13.7 9.7 5.1 56 4.0 E 15 17 8 9 1024.6 - 0.0
25/07:00am 12.6 10.0 4.3 57 3.8 E 7 9 4 5 1024.6 - 0.0
25/06:30am 12.0 8.9 3.5 56 3.8 E 9 9 5 5 1024.4 - 0.0
25/06:00am 11.7 8.4 2.7 54 3.9 E 9 11 5 6 1024.3 1024.1 0.0
25/05:30am 12.0 9.2 3.0 54 4.0 E 7 9 4 5 1024.3 - 0.0
25/05:00am 12.2 9.4 3.2 54 4.0 E 7 9 4 5 1023.9 - 0.0
25/04:30am 12.2 9.6 3.2 54 4.0 E 6 7 3 4 1023.9 - 0.0
25/04:00am 12.4 8.5 3.4 54 4.0 E 13 13 7 7 1023.8 - 0.0
25/03:30am 13.4 9.5 3.5 51 4.4 E 13 15 7 8 1024.1 - 0.0
25/03:00am 13.8 9.6 3.9 51 4.5 E 15 17 8 9 1024.0 1023.8 0.0
25/02:30am 14.4 11.3 3.8 49 4.9 SE 9 13 5 7 1024.7 - 0.0
25/02:00am 14.6 11.5 3.7 48 5.0 E 9 13 5 7 1025.1 - 0.0
25/01:30am 16.0 11.5 4.4 46 5.5 E 17 20 9 11 1024.7 - 0.0
25/01:00am 16.4 11.4 4.4 45 5.7 E 20 24 11 13 1024.5 - 0.0
25/12:30am 16.6 11.8 4.9 46 5.6 E 19 24 10 13 1024.8 - 0.0
25/12:00am 16.4 12.0 4.8 46 5.5 E 17 20 9 11 1024.6 1024.4 0.0
 
Date/Time
CST
Temp
°C
App
Temp
°C
Dew
Point
Rel
Hum
%
Delta-T
°C
Wind Press
QNH
hPa
Press
MSL
hPa
Rain
since 9 am
mm
Dir
 
Spd
km/h
Gust
km/h
Spd
kts
Gust
kts
24/11:30pm 16.7 12.7 4.7 45 5.7 E 15 17 8 9 1025.0 - 0.0
24/11:00pm 16.8 12.0 4.8 45 5.7 E 19 20 10 11 1024.9 - 0.0
24/10:30pm 16.9 12.8 4.6 44 5.9 ENE 15 17 8 9 1025.2 - 0.0
24/10:00pm 16.4 12.3 4.1 44 5.8 ESE 15 17 8 9 1024.9 - 0.0
24/09:30pm 17.1 13.4 4.4 43 6.0 E 13 15 7 8 1024.8 - 0.0
24/09:00pm 18.1 14.1 4.7 41 6.4 ENE 15 17 8 9 1024.7 1024.5 0.0
24/08:30pm 17.8 14.0 4.0 40 6.5 E 13 15 7 8 1024.4 - 0.0
24/08:00pm 18.3 14.2 4.1 39 6.8 E 15 17 8 9 1024.2 - 0.0
24/07:30pm 19.5 15.7 4.0 36 7.4 E 13 15 7 8 1024.1 - 0.0
24/07:00pm 19.4 15.9 3.6 35 7.5 E 11 15 6 8 1023.8 - 0.0
24/06:30pm 20.0 16.9 3.7 34 7.8 E 9 9 5 5 1023.7 - 0.0
24/06:00pm 20.6 17.6 4.2 34 7.9 ENE 9 13 5 7 1023.6 1023.4 0.0
24/05:30pm 20.9 17.1 4.0 33 8.2 ENE 13 17 7 9 1023.2 - 0.0
24/05:00pm 21.1 17.7 3.8 32 8.4 E 11 17 6 9 1023.0 - 0.0
24/04:30pm 21.6 17.8 3.8 31 8.6 E 13 19 7 10 1023.0 - 0.0
24/04:00pm 21.7 18.3 3.9 31 8.6 NNE 11 17 6 9 1023.0 - 0.0
24/03:30pm 21.6 18.5 3.8 31 8.6 NNE 9 11 5 6 1023.0 - 0.0
24/03:00pm 21.5 18.5 4.1 32 8.4 N 9 19 5 10 1023.1 1022.9 0.0
24/02:30pm 21.5 18.1 4.1 32 8.5 N 11 20 6 11 1023.2 - 0.0
24/02:00pm 21.0 17.2 4.1 33 8.2 N 13 22 7 12 1023.1 - 0.0
24/01:30pm 21.1 17.0 4.2 33 8.2 NNE 15 22 8 12 1023.2 - 0.0
24/01:00pm 21.4 16.6 4.5 33 8.3 NNE 19 28 10 15 1023.5 - 0.0
24/12:30pm 21.3 16.3 4.8 34 8.1 NNE 20 30 11 16 1023.9 - 0.0
24/12:00pm 21.5 16.9 5.8 36 7.9 NNE 19 28 10 15 1024.3 1024.1 0.0
24/11:30am 20.1 15.7 6.4 41 6.9 NNE 19 24 10 13 1024.6 - 0.0
24/11:00am 19.4 15.4 6.8 44 6.4 NE 17 24 9 13 1025.1 - 0.0
24/10:30am 18.9 14.3 6.7 45 6.1 ENE 20 26 11 14 1025.3 - 0.0
24/10:00am 18.6 14.4 7.4 48 5.7 NE 19 24 10 13 1025.4 - 0.0
24/09:30am 16.1 13.2 6.5 53 4.7 ENE 11 15 6 8 1025.6 - 0.0
24/09:00am 14.7 11.7 6.0 56 4.2 ENE 11 15 6 8 1025.7 1025.6 0.0
24/08:30am 13.6 11.5 5.7 59 3.7 ESE 6 9 3 5 1025.7 - 0.0
24/08:00am 11.8 10.7 5.0 63 3.1 CALM 0 0 0 0 1025.7 - 0.0
24/07:30am 10.8 8.3 4.0 63 3.0 SE 6 7 3 4 1025.3 - 0.0
24/07:00am 10.9 8.5 4.4 64 2.9 SE 6 7 3 4 1024.8 - 0.0
24/06:30am 11.0 8.6 4.2 63 3.1 SE 6 7 3 4 1024.6 - 0.0
24/06:00am 11.1 8.7 4.3 63 3.0 SE 6 6 3 3 1024.4 1024.2 0.0
24/05:30am 10.9 8.4 3.5 60 3.3 SE 6 7 3 4 1024.4 - 0.0
24/05:00am 11.0 7.6 4.0 62 3.1 SE 11 13 6 7 1024.0 - 0.0
24/04:30am 10.9 8.1 3.2 59 3.4 E 7 9 4 5 1023.9 - 0.0
24/04:00am 11.6 8.6 4.1 60 3.4 E 9 9 5 5 1024.2 - 0.0
24/03:30am 12.0 8.6 4.2 59 3.5 E 11 13 6 7 1024.5 - 0.0
24/03:00am 12.2 8.5 4.2 58 3.6 E 13 15 7 8 1024.5 1024.3 0.0
24/02:30am 12.3 8.6 4.3 58 3.6 E 13 15 7 8 1024.7 - 0.0
24/02:00am 12.3 8.5 3.8 56 3.8 E 13 13 7 7 1024.6 - 0.0
24/01:30am 11.8 8.6 3.1 55 3.8 E 9 11 5 6 1025.1 - 0.0
24/01:00am 12.1 8.9 3.3 55 3.9 E 9 9 5 5 1025.1 - 0.0
24/12:30am 12.3 8.4 3.3 54 4.0 E 13 13 7 7 1025.1 - 0.0
24/12:00am 12.7 8.8 3.4 53 4.1 E 13 15 7 8 1025.3 1025.2 0.0
 
Date/Time
CST
Temp
°C
App
Temp
°C
Dew
Point
Rel
Hum
%
Delta-T
°C
Wind Press
QNH
hPa
Press
MSL
hPa
Rain
since 9 am
mm
Dir
 
Spd
km/h
Gust
km/h
Spd
kts
Gust
kts
23/11:30pm 12.8 8.5 3.2 52 4.3 E 15 17 8 9 1025.2 - 0.0
23/11:00pm 12.7 8.4 3.1 52 4.3 E 15 17 8 9 1025.4 - 0.0
23/10:30pm 13.1 8.4 2.9 50 4.5 ENE 17 19 9 10 1025.6 - 0.0
23/10:00pm 13.5 9.1 2.7 48 4.8 E 15 17 8 9 1025.8 - 0.0
23/09:30pm 13.6 8.8 2.5 47 4.9 E 17 19 9 10 1025.7 - 0.0
23/09:00pm 13.2 8.6 1.5 45 5.0 E 15 17 8 9 1025.6 1025.5 0.0
23/08:30pm 12.2 7.8 0.6 45 4.9 E 13 15 7 8 1025.4 - 0.0
23/08:00pm 13.0 9.0 0.7 43 5.2 E 11 15 6 8 1025.5 - 0.0
23/07:30pm 14.1 9.8 1.1 41 5.6 E 13 15 7 8 1025.2 - 0.0
23/07:00pm 13.6 9.3 0.9 42 5.4 E 13 13 7 7 1025.1 - 0.0
23/06:30pm 14.7 10.8 1.3 40 5.8 E 11 13 6 7 1025.0 - 0.0
23/06:00pm 16.5 12.3 1.8 37 6.5 E 13 13 7 7 1024.8 1024.6 0.0
23/05:30pm 17.9 13.4 2.2 35 7.2 E 15 19 8 10 1024.7 - 0.0
23/05:00pm 18.3 14.2 2.2 34 7.4 E 13 19 7 10 1024.7 - 0.0
23/04:30pm 18.8 14.5 3.0 35 7.4 E 15 24 8 13 1024.6 - 0.0
23/04:00pm 18.7 15.1 2.9 35 7.4 ENE 11 20 6 11 1024.4 - 0.0
23/03:30pm 18.1 14.5 2.8 36 7.1 NE 11 19 6 10 1024.7 - 0.0
23/03:00pm 18.2 14.1 2.5 35 7.2 NNE 13 20 7 11 1025.1 1025.0 0.0
23/02:30pm 18.6 13.9 2.9 35 7.3 NE 17 26 9 14 1025.1 - 0.0
23/02:00pm 18.3 13.5 2.6 35 7.2 NE 17 22 9 12 1025.2 - 0.0
23/01:30pm 17.9 13.2 3.0 37 6.9 NNE 17 26 9 14 1025.7 - 0.0
23/01:00pm 18.0 12.9 3.1 37 6.9 NE 19 30 10 16 1026.0 - 0.0
23/12:30pm 18.0 12.9 3.9 39 6.7 NE 20 35 11 19 1026.7 - 0.0
23/12:00pm 16.6 11.5 4.3 44 5.8 NE 20 30 11 16 1027.4 1027.3 0.0
23/11:30am 16.5 11.0 3.9 43 5.9 ENE 22 32 12 17 1027.6 - 0.0
23/11:00am 15.7 10.2 4.1 46 5.4 ENE 22 33 12 18 1028.0 - 0.0
23/10:30am 15.2 9.4 4.3 48 5.1 E 24 32 13 17 1028.4 - 0.0
23/10:00am 14.8 8.9 3.9 48 5.0 ENE 24 35 13 19 1028.4 - 0.0
23/09:30am 13.9 8.5 2.5 46 5.1 E 20 24 11 13 1029.0 - 0.0
23/09:00am 10.8 7.6 0.8 50 4.1 ESE 7 9 4 5 1029.1 1028.9 0.0
23/08:30am 7.2 3.9 -1.2 55 3.2 ESE 6 7 3 4 1028.9 - 0.0
23/08:00am 4.6 2.2 -2.9 58 2.7 CALM 0 0 0 0 1028.9 - 0.0
23/07:30am 3.1 -0.8 -4.3 58 2.5 ESE 7 7 4 4 1028.3 - 0.0
23/07:00am 3.2 -0.5 -2.9 64 2.1 ESE 7 7 4 4 1028.3 - 0.0
23/06:30am 3.2 -0.3 -2.9 64 2.1 ESE 6 7 3 4 1028.3 - 0.0
23/06:00am 3.3 -0.4 -4.2 58 2.5 ESE 6 7 3 4 1027.9 1027.8 0.0
23/05:30am 4.4 2.2 -1.2 67 2.1 CALM 0 0 0 0 1027.9 - 0.0
23/05:00am 3.4 1.1 -2.3 66 2.0 CALM 0 0 0 0 1027.8 - 0.0
23/04:30am 4.7 1.7 -1.7 63 2.3 ESE 4 6 2 3 1027.8 - 0.0
23/04:00am 4.5 0.4 -3.3 57 2.7 ESE 9 9 5 5 1027.7 - 0.0
23/03:30am 5.8 3.8 -0.3 65 2.3 CALM 0 0 0 0 1027.6 - 0.0
23/03:00am 5.2 3.0 -1.7 61 2.5 CALM 0 0 0 0 1027.8 1027.7 0.0
23/02:30am 6.2 2.7 -2.7 53 3.2 ESE 6 7 3 4 1027.8 - 0.0
23/02:00am 6.3 3.2 -2.6 53 3.2 ESE 4 6 2 3 1027.8 - 0.0
23/01:30am 6.5 2.6 -1.6 56 3.0 ESE 9 9 5 5 1028.0 - 0.0
23/01:00am 7.7 4.2 -1.5 52 3.5 ESE 7 9 4 5 1028.3 - 0.0
23/12:30am 8.4 5.0 -0.6 53 3.5 ESE 7 9 4 5 1028.6 - 0.0
23/12:00am 7.9 4.0 -1.3 52 3.5 ESE 9 11 5 6 1028.9 1028.7 0.0
 
Date/Time
CST
Temp
°C
App
Temp
°C
Dew
Point
Rel
Hum
%
Delta-T
°C
Wind Press
QNH
hPa
Press
MSL
hPa
Rain
since 9 am
mm
Dir
 
Spd
km/h
Gust
km/h
Spd
kts
Gust
kts
22/11:30pm 8.4 4.2 -1.1 51 3.7 ESE 11 11 6 6 1028.9 - 0.0
22/11:00pm 8.8 5.0 -1.0 50 3.8 E 9 11 5 6 1028.9 - 0.0

Other Formats:

Comma delimited format used in spreadsheet applications
http://www.bom.gov.au/fwo/IDS60801/IDS60801.94476.axf

JavaScript Object Notation format (JSON) in row-major order
http://www.bom.gov.au/fwo/IDS60801/IDS60801.94476.json